CYAZ

Tofino / Long Beach Airport

Tofino, , Canada
METAR CYAZ 240100Z 10005KT 040V120 5SM -RA BR BKN015 OVC030 08/07 A2965 RMK CU5SC3 LAST STFD OBS/NEXT 241500UTC SLP041
Observed Flight Rules
Jan-24 @ 01:00 UTC (2 hours ago) Marginal Visual Flight Rules
Wind Visibility Clouds Conditions
100° at 5 knots 5 miles
  • Broken at 1,500' AGL
  • Overcast at 3,000' AGL
  • Light Rain
  • Mist
Temperatures Readings
Current 8°C / 46°F
Dewpoint 7°C / 45°F
Humidity 93%
Altimeter 29.65" Hg
Pressure 1004.1 hPa
Elevation 24
METAR CYAZ 240100Z 10005KT 040V120 5SM -RA BR BKN015 OVC030 08/07 A2965 RMK CU5SC3 LAST STFD OBS/NEXT 241500UTC SLP041
Observed Flight Rules
Jan-24 @ 01:00 UTC
(2 hours ago)
MVFR
Wind Visibility
100° at 5 knots 5 miles
Clouds
  • Broken at 1,500' AGL
  • Overcast at 3,000' AGL
Conditions
  • Light Rain
  • Mist
Temperature Dewpoint
8°C / 46°F 7°C / 45°F
Humidity Altimeter Pressure
93% 29.65" Hg 1004.1 hPa